Apple Valley, Minnesota
Current Conditions -  °F | °C
As of 6:04 AM on Saturday 20 Dec 2014 (Local Time) from KLVN Reporting Station
Haze Haze  
Wind Chill: 28°   Ceiling: 900
Heat Index: 28°   Visibility: 5mi
Dew Point: 27°   Wind: 3mph
Humidity: 93%   Direction: 150°SSE
Pressure: 30.15"   Gusts: NA
Location:  44.74°N, 93.22°W
Report Text: KLVN 201204Z AUTO 15003KT 5SM BR BKN009 M02/M03 A3015 RMK AO2
Loading
Personal Weather Stations






























Interactive Weather Map New forecast layout! Learn more

10-Day Weather Forecast

Advertisements
Track Severe Weather on mobile